Time;durP1;ratioP1;P1;durP2;ratioP2;P2;SDS_P1;SDS_P2;PMS_P1;PMS_P2;Temp;Humidity;BMP_temperature;BMP_pressure;BME280_temperature;BME280_humidity;BME280_pressure;Samples;Min_cycle;Max_cycle;Signal;HPM_P1;HPM_P2
2022/03/18 00:00:20;;;;;;;11.95;3.65;;;-0.10;79.40;;;;;;6212774;23;20108;-87
2022/03/18 00:02:48;;;;;;;9.90;3.78;;;-0.20;77.50;;;;;;6212086;23;20105;-86
2022/03/18 00:05:16;;;;;;;10.60;4.05;;;-0.20;78.80;;;;;;6188010;23;20017;-87
2022/03/18 00:07:44;;;;;;;11.30;3.97;;;-0.20;77.20;;;;;;6214865;23;20472;-86
2022/03/18 00:10:13;;;;;;;18.33;4.32;;;-0.30;78.30;;;;;;6212943;23;20094;-86
2022/03/18 00:12:52;;;;;;;7.75;3.67;;;-0.30;78.80;;;;;;6213653;23;20080;-87
2022/03/18 00:15:21;;;;;;;11.00;3.85;;;-0.30;77.50;;;;;;6219428;22;20025;-86
2022/03/18 00:17:48;;;;;;;14.63;4.15;;;-0.40;79.80;;;;;;6213179;22;20021;-87
2022/03/18 00:20:15;;;;;;;7.90;3.42;;;-0.40;81.10;;;;;;6213391;22;20021;-87
2022/03/18 00:22:44;;;;;;;8.50;3.30;;;-0.50;81.00;;;;;;6215881;23;20112;-87
2022/03/18 00:25:12;;;;;;;9.45;3.42;;;-0.50;79.90;;;;;;6221901;23;20028;-87
2022/03/18 00:27:42;;;;;;;9.40;3.80;;;-0.50;78.50;;;;;;6215377;23;20029;-87
2022/03/18 00:30:13;;;;;;;14.05;3.70;;;-0.50;78.20;;;;;;6213904;23;20142;-87
2022/03/18 00:32:45;;;;;;;10.02;3.45;;;-0.50;79.60;;;;;;6215567;22;20318;-87
2022/03/18 00:35:31;;;;;;;13.25;3.03;;;-0.50;78.10;;;;;;6213508;23;20039;-87
2022/03/18 00:38:02;;;;;;;10.57;3.40;;;-0.60;78.20;;;;;;6214746;23;20079;-88
2022/03/18 00:40:30;;;;;;;7.85;2.47;;;-0.60;78.20;;;;;;6214062;23;20045;-87
2022/03/18 00:42:57;;;;;;;6.80;2.95;;;-0.70;78.60;;;;;;6215520;22;20040;-87
2022/03/18 00:45:24;;;;;;;6.53;2.65;;;-0.70;78.80;;;;;;6215220;23;20347;-87
2022/03/18 00:53:29;;;;;;;11.75;3.97;;;-0.70;80.20;;;;;;6180269;22;20029;-87
2022/03/18 00:55:58;;;;;;;10.65;3.92;;;-0.80;80.50;;;;;;6214730;23;20077;-88
2022/03/18 00:58:25;;;;;;;12.80;4.20;;;-0.70;82.00;;;;;;6212052;23;20021;-87
2022/03/18 01:00:52;;;;;;;11.35;3.72;;;-0.80;81.10;;;;;;6211656;23;20029;-87
2022/03/18 01:03:19;;;;;;;12.32;3.88;;;-0.80;80.60;;;;;;6212637;23;20060;-87
2022/03/18 01:05:46;;;;;;;10.52;2.97;;;-0.80;79.70;;;;;;6188116;23;20021;-87
2022/03/18 01:08:13;;;;;;;8.07;3.33;;;-0.80;79.40;;;;;;6213729;23;20032;-87
2022/03/18 01:10:40;;;;;;;14.77;3.75;;;-0.80;78.10;;;;;;6212756;23;20101;-87
2022/03/18 01:13:06;;;;;;;8.35;3.30;;;-0.80;79.80;;;;;;6212176;23;20037;-87
2022/03/18 01:15:33;;;;;;;11.80;3.47;;;-0.80;80.30;;;;;;6212239;23;20096;-87
2022/03/18 01:18:00;;;;;;;8.25;3.17;;;-0.80;80.20;;;;;;6212032;23;20025;-87
2022/03/18 01:20:27;;;;;;;6.80;2.97;;;-0.80;79.80;;;;;;6212337;23;20096;-88
2022/03/18 01:22:54;;;;;;;10.50;3.78;;;-0.80;79.00;;;;;;6213271;23;20804;-87
2022/03/18 01:25:21;;;;;;;12.52;3.50;;;-0.80;81.60;;;;;;6211697;23;20072;-87
2022/03/18 01:27:47;;;;;;;11.05;3.47;;;-0.80;82.10;;;;;;6213043;23;20083;-87
2022/03/18 01:30:14;;;;;;;12.95;4.13;;;-0.80;81.40;;;;;;6212765;23;20096;-87
2022/03/18 01:32:41;;;;;;;9.05;3.65;;;-0.90;81.10;;;;;;6213185;23;20052;-87
2022/03/18 01:35:09;;;;;;;8.77;3.28;;;-0.90;82.00;;;;;;6212148;23;20020;-87
2022/03/18 01:37:36;;;;;;;14.98;4.57;;;-0.90;81.30;;;;;;6212481;23;20076;-88
2022/03/18 01:40:03;;;;;;;11.02;3.80;;;-0.90;81.60;;;;;;6212857;23;20029;-87
2022/03/18 01:42:30;;;;;;;7.70;3.22;;;-0.90;82.30;;;;;;6212848;23;20021;-87
2022/03/18 01:44:57;;;;;;;12.23;3.28;;;-0.90;82.40;;;;;;6211999;23;20486;-87
2022/03/18 01:47:24;;;;;;;11.30;3.58;;;-1.00;81.60;;;;;;6212806;23;20485;-87
2022/03/18 01:49:51;;;;;;;10.45;3.45;;;-1.00;81.40;;;;;;6212128;23;20492;-87
2022/03/18 01:52:18;;;;;;;10.95;3.78;;;-1.00;79.80;;;;;;6212533;23;20614;-87
2022/03/18 01:54:48;;;;;;;11.55;3.47;;;-1.00;80.90;;;;;;6210867;23;20061;-87
2022/03/18 01:57:26;;;;;;;10.60;3.45;;;-1.00;81.50;;;;;;6212240;23;20103;-87
2022/03/18 01:59:53;;;;;;;8.48;3.42;;;-1.00;81.60;;;;;;6212151;23;20017;-87
2022/03/18 02:02:20;;;;;;;10.13;3.58;;;-1.00;81.60;;;;;;6212302;23;20515;-87
2022/03/18 02:04:48;;;;;;;10.27;3.55;;;-1.00;82.20;;;;;;6212113;23;20036;-88
2022/03/18 02:07:15;;;;;;;15.45;3.97;;;-1.10;81.00;;;;;;6212023;23;20029;-87
2022/03/18 02:09:44;;;;;;;12.82;3.47;;;-1.10;80.40;;;;;;6214620;22;20025;-87
2022/03/18 02:12:11;;;;;;;10.23;3.53;;;-1.10;81.90;;;;;;6213127;23;20033;-87
2022/03/18 02:14:43;;;;;;;11.98;3.10;;;-1.10;81.50;;;;;;6210406;23;20024;-87
2022/03/18 02:17:13;;;;;;;16.77;3.83;;;-1.10;82.10;;;;;;6213502;23;20028;-87
2022/03/18 02:19:41;;;;;;;9.65;3.15;;;-1.10;83.70;;;;;;6212089;23;20021;-88
2022/03/18 02:22:23;;;;;;;6.63;3.00;;;-1.10;83.10;;;;;;6211916;23;20056;-87
2022/03/18 02:24:52;;;;;;;13.65;3.90;;;-1.10;81.50;;;;;;6211511;23;20028;-87
2022/03/18 02:27:19;;;;;;;9.90;3.20;;;-1.10;81.40;;;;;;6214326;22;20083;-87
2022/03/18 02:29:47;;;;;;;10.95;3.83;;;-1.10;81.80;;;;;;6212970;23;20905;-88
2022/03/18 02:32:14;;;;;;;9.05;3.45;;;-1.10;82.30;;;;;;6216060;23;20720;-87
2022/03/18 02:34:41;;;;;;;16.42;3.67;;;-1.10;81.00;;;;;;6222708;22;20104;-88
2022/03/18 02:37:08;;;;;;;9.95;2.97;;;-1.10;81.90;;;;;;6237772;23;20029;-88
2022/03/18 02:39:36;;;;;;;12.50;3.65;;;-1.10;82.20;;;;;;6216537;22;20021;-87
2022/03/18 02:42:04;;;;;;;8.07;3.50;;;-1.20;82.40;;;;;;6237193;22;19989;-88
2022/03/18 02:44:32;;;;;;;9.35;3.28;;;-1.20;82.30;;;;;;6237478;22;20065;-87
2022/03/18 02:46:59;;;;;;;13.32;4.10;;;-1.20;83.10;;;;;;6189315;23;20021;-88
2022/03/18 02:49:26;;;;;;;12.85;3.30;;;-1.30;84.40;;;;;;6217591;23;20020;-87
2022/03/18 02:51:53;;;;;;;11.20;2.97;;;-1.30;84.00;;;;;;6215455;23;20083;-87
2022/03/18 02:54:20;;;;;;;7.13;3.03;;;-1.30;84.00;;;;;;6212317;23;20033;-87
2022/03/18 02:56:47;;;;;;;13.38;3.22;;;-1.30;83.40;;;;;;6212748;23;20092;-87
2022/03/18 02:59:14;;;;;;;12.85;3.40;;;-1.30;82.60;;;;;;6213828;23;20021;-87
2022/03/18 03:01:41;;;;;;;8.38;2.85;;;-1.30;82.60;;;;;;6213019;23;20032;-87
2022/03/18 03:04:08;;;;;;;15.45;3.72;;;-1.30;82.90;;;;;;6211616;23;20044;-88
2022/03/18 03:09:20;;;;;;;7.53;3.10;;;-1.40;83.90;;;;;;6215379;23;20036;-87
2022/03/18 03:11:47;;;;;;;7.45;2.95;;;-1.40;84.30;;;;;;6216449;23;20025;-88
2022/03/18 03:14:14;;;;;;;6.80;3.08;;;-1.40;83.90;;;;;;6220244;23;22892;-88
2022/03/18 03:16:42;;;;;;;8.70;2.97;;;-1.40;82.70;;;;;;6220248;23;20029;-88
2022/03/18 03:19:09;;;;;;;11.10;3.47;;;-1.40;82.60;;;;;;6213778;23;20025;-88
2022/03/18 03:21:37;;;;;;;9.10;3.05;;;-1.40;82.80;;;;;;6213885;23;20025;-87
2022/03/18 03:24:04;;;;;;;8.80;3.10;;;-1.40;83.80;;;;;;6213230;23;20460;-87
2022/03/18 03:26:32;;;;;;;11.80;3.22;;;-1.50;84.30;;;;;;6213420;23;20056;-87
2022/03/18 03:28:58;;;;;;;12.48;3.42;;;-1.50;84.70;;;;;;6212861;23;20017;-88
2022/03/18 03:31:25;;;;;;;12.05;3.13;;;-1.50;84.40;;;;;;6213554;23;20024;-87
2022/03/18 03:33:53;;;;;;;4.82;2.55;;;-1.50;84.50;;;;;;6213650;23;20021;-88
2022/03/18 03:36:19;;;;;;;9.40;2.70;;;-1.60;83.80;;;;;;6218292;23;20025;-89
2022/03/18 03:38:46;;;;;;;12.00;3.33;;;-1.50;83.90;;;;;;6219132;23;20021;-88
2022/03/18 03:41:13;;;;;;;11.25;3.22;;;-1.50;84.00;;;;;;6218872;23;20101;-88
2022/03/18 03:43:41;;;;;;;8.63;3.10;;;-1.60;84.10;;;;;;6221265;23;20028;-89
2022/03/18 03:46:08;;;;;;;6.85;2.33;;;-1.50;84.30;;;;;;6219561;23;20021;-88
2022/03/18 03:48:35;;;;;;;7.72;2.83;;;-1.60;84.10;;;;;;6219362;23;20017;-88
2022/03/18 03:51:01;;;;;;;8.93;3.00;;;-1.60;83.00;;;;;;6220293;23;20025;-88
2022/03/18 03:53:28;;;;;;;5.45;2.45;;;-1.60;82.80;;;;;;6220363;23;20100;-88
2022/03/18 03:55:58;;;;;;;4.78;2.30;;;-1.60;82.50;;;;;;6220681;23;20104;-88
2022/03/18 03:58:25;;;;;;;6.45;2.40;;;-1.60;82.00;;;;;;6218968;23;20098;-89
2022/03/18 04:00:52;;;;;;;8.50;2.40;;;-1.60;81.50;;;;;;6220094;23;20846;-88
2022/03/18 04:03:19;;;;;;;6.00;2.35;;;-1.60;82.50;;;;;;6219249;23;20027;-88
2022/03/18 04:05:46;;;;;;;8.52;2.80;;;-1.60;82.50;;;;;;6217938;23;20479;-87
2022/03/18 04:08:14;;;;;;;10.93;3.92;;;-1.60;82.30;;;;;;6213130;23;20067;-88
2022/03/18 04:10:42;;;;;;;7.20;2.70;;;-1.60;81.70;;;;;;6215326;22;20088;-88
2022/03/18 04:13:10;;;;;;;6.85;2.53;;;-1.70;81.50;;;;;;6215161;22;20024;-87
2022/03/18 04:15:38;;;;;;;8.55;2.80;;;-1.60;81.70;;;;;;6213691;23;20020;-87
2022/03/18 04:18:05;;;;;;;6.85;2.75;;;-1.70;81.30;;;;;;6214222;22;20071;-88
2022/03/18 04:20:33;;;;;;;13.00;3.40;;;-1.70;80.90;;;;;;6213420;23;20032;-88
2022/03/18 04:23:00;;;;;;;8.90;3.17;;;-1.70;82.20;;;;;;6212946;23;20072;-87
2022/03/18 04:25:27;;;;;;;13.18;3.20;;;-1.70;83.80;;;;;;6214306;23;20100;-88
2022/03/18 04:27:57;;;;;;;4.72;1.85;;;-1.70;83.00;;;;;;6216435;23;20472;-88
2022/03/18 04:30:24;;;;;;;15.43;3.55;;;-1.70;82.60;;;;;;6216084;23;20064;-88
2022/03/18 04:32:51;;;;;;;8.55;3.88;;;-1.70;84.10;;;;;;6212887;23;20057;-87
2022/03/18 04:35:18;;;;;;;6.90;2.33;;;-1.70;83.80;;;;;;6213858;23;20448;-88
2022/03/18 04:37:45;;;;;;;6.15;2.20;;;-1.70;83.90;;;;;;6213211;23;20067;-87
2022/03/18 04:40:13;;;;;;;10.93;2.65;;;-1.70;83.20;;;;;;6215053;22;20564;-87
2022/03/18 04:42:41;;;;;;;13.80;3.53;;;-1.70;83.00;;;;;;6212687;23;20089;-88
2022/03/18 04:45:09;;;;;;;8.60;2.83;;;-1.70;83.30;;;;;;6214941;22;20017;-87
2022/03/18 04:47:36;;;;;;;9.43;2.70;;;-1.80;83.60;;;;;;6215435;22;20748;-87
2022/03/18 04:50:04;;;;;;;6.78;1.98;;;-1.80;83.80;;;;;;6213417;23;20025;-88
2022/03/18 04:52:30;;;;;;;9.10;3.00;;;-1.80;82.90;;;;;;6214005;23;20055;-88
2022/03/18 04:54:57;;;;;;;8.18;2.78;;;-1.80;83.30;;;;;;6212952;23;20031;-88
2022/03/18 04:57:24;;;;;;;12.73;3.38;;;-1.80;84.10;;;;;;6211957;23;20015;-88
2022/03/18 04:59:52;;;;;;;12.30;3.08;;;-1.80;84.40;;;;;;6213716;23;20107;-87
2022/03/18 05:02:23;;;;;;;12.80;3.10;;;-1.80;84.30;;;;;;6214964;22;20017;-88
2022/03/18 05:04:50;;;;;;;9.32;3.22;;;-1.80;84.40;;;;;;6214673;23;20041;-89
2022/03/18 05:07:17;;;;;;;9.00;2.70;;;-1.80;83.40;;;;;;6212154;23;20131;-88
2022/03/18 05:09:45;;;;;;;6.35;2.60;;;-1.80;83.00;;;;;;6213442;23;20107;-88
2022/03/18 05:12:14;;;;;;;10.38;2.80;;;-1.90;82.50;;;;;;6215058;23;20052;-88
2022/03/18 05:14:41;;;;;;;11.00;3.40;;;-1.90;82.70;;;;;;6214340;23;20017;-87
2022/03/18 05:17:09;;;;;;;9.75;3.53;;;-1.90;82.60;;;;;;6216536;23;20021;-88
2022/03/18 05:19:37;;;;;;;11.68;3.97;;;-1.80;84.20;;;;;;6189742;23;20029;-88
2022/03/18 05:22:06;;;;;;;8.65;3.10;;;-1.90;84.30;;;;;;6214231;23;20028;-87
2022/03/18 05:24:33;;;;;;;7.00;2.25;;;-1.90;83.90;;;;;;6214544;23;20028;-88
2022/03/18 05:27:00;;;;;;;8.27;3.17;;;-1.90;83.40;;;;;;6224867;23;20025;-89
2022/03/18 05:29:27;;;;;;;13.63;3.50;;;-1.90;82.70;;;;;;6236394;23;19997;-88
2022/03/18 05:31:55;;;;;;;4.75;2.25;;;-1.90;82.30;;;;;;6228858;23;20100;-87
2022/03/18 05:34:22;;;;;;;5.50;2.72;;;-1.90;82.20;;;;;;6225648;23;20711;-88
2022/03/18 05:36:49;;;;;;;12.10;3.42;;;-1.90;82.40;;;;;;6236756;23;20497;-89
2022/03/18 05:39:16;;;;;;;8.75;2.63;;;-1.90;83.00;;;;;;6220634;23;20079;-88
2022/03/18 05:41:43;;;;;;;6.00;2.08;;;-1.90;83.70;;;;;;6214835;23;20464;-88
2022/03/18 05:44:11;;;;;;;8.55;2.78;;;-1.90;82.80;;;;;;6213697;23;20055;-87
2022/03/18 05:46:46;;;;;;;11.50;3.15;;;-1.90;82.30;;;;;;6213897;23;20028;-88
2022/03/18 05:49:14;;;;;;;8.75;2.63;;;-1.90;83.00;;;;;;6213058;23;20149;-88
2022/03/18 05:51:41;;;;;;;7.10;3.28;;;-1.90;83.70;;;;;;6212965;23;20009;-88
2022/03/18 05:54:13;;;;;;;11.38;3.50;;;-1.90;83.60;;;;;;6213081;23;20112;-88
2022/03/18 05:56:53;;;;;;;8.07;1.92;;;-1.90;83.90;;;;;;6212614;23;20025;-88
2022/03/18 05:59:25;;;;;;;10.45;3.15;;;-1.90;82.90;;;;;;6213250;23;20164;-88
2022/03/18 06:01:56;;;;;;;9.00;3.20;;;-1.90;82.90;;;;;;6212937;23;20076;-88
2022/03/18 06:04:25;;;;;;;8.40;2.92;;;-1.80;84.70;;;;;;6215024;22;20025;-88
2022/03/18 06:06:52;;;;;;;8.90;2.75;;;-1.80;84.50;;;;;;6188418;23;20021;-88
2022/03/18 06:12:06;;;;;;;17.13;3.78;;;-1.80;85.20;;;;;;6214328;23;20104;-88
2022/03/18 06:14:33;;;;;;;11.00;3.45;;;-1.80;84.10;;;;;;6213431;23;20041;-88
2022/03/18 06:17:01;;;;;;;10.85;3.38;;;-1.80;83.40;;;;;;6214724;23;20444;-88
2022/03/18 06:19:29;;;;;;;6.45;2.47;;;-1.70;83.90;;;;;;6213410;23;20028;-88
2022/03/18 06:22:00;;;;;;;10.40;2.95;;;-1.70;84.30;;;;;;6213372;23;20025;-88
2022/03/18 06:24:28;;;;;;;9.82;4.10;;;-1.70;84.10;;;;;;6215305;22;20021;-88
2022/03/18 06:26:55;;;;;;;9.77;3.03;;;-1.60;84.30;;;;;;6213857;23;20028;-89
2022/03/18 06:29:23;;;;;;;14.90;4.70;;;-1.60;84.20;;;;;;6212616;23;20025;-88
2022/03/18 06:31:50;;;;;;;13.63;4.32;;;-1.60;83.70;;;;;;6213652;23;20033;-88
2022/03/18 09:49:23;;;;;;;11.20;3.75;;;14.20;50.90;;;;;;6154114;23;20028;-85
2022/03/18 09:52:48;;;;;;;;;;;;;;;;;;;;;
2022/03/18 09:56:14;;;;;;;9.48;4.13;;;14.30;50.50;;;;;;6211541;22;20025;-85
2022/03/18 09:59:27;;;;;;;11.52;3.75;;;14.50;52.80;;;;;;6211836;23;20031;-84
2022/03/18 10:02:20;;;;;;;14.02;4.28;;;14.80;49.30;;;;;;6218306;22;20131;-85
2022/03/18 10:05:19;;;;;;;13.73;4.38;;;14.70;49.60;;;;;;6215334;23;20021;-85
2022/03/18 10:07:58;;;;;;;11.05;4.03;;;14.50;52.00;;;;;;6214894;23;20298;-86
2022/03/18 10:10:58;;;;;;;10.75;3.80;;;14.70;51.40;;;;;;6220747;22;20037;-85
2022/03/18 10:14:03;;;;;;;17.90;4.15;;;14.40;49.40;;;;;;6217135;22;20013;-85
2022/03/18 10:16:36;;;;;;;11.70;4.35;;;14.60;49.50;;;;;;6215496;22;20031;-85
2022/03/18 10:19:06;;;;;;;12.02;4.32;;;14.50;51.30;;;;;;6217138;23;20032;-79
2022/03/18 10:21:53;;;;;;;14.60;4.70;;;14.70;51.00;;;;;;6214979;23;20865;-85
2022/03/18 10:24:42;;;;;;;10.15;4.03;;;15.10;50.60;;;;;;6216358;22;20010;-85
2022/03/18 10:27:32;;;;;;;8.63;4.18;;;15.00;49.30;;;;;;6215522;23;20443;-85
2022/03/18 10:30:31;;;;;;;17.38;4.82;;;14.90;51.10;;;;;;6213541;23;20075;-86
2022/03/18 10:33:05;;;;;;;12.43;4.72;;;14.70;50.50;;;;;;6217230;22;20108;-86
2022/03/18 10:38:37;;;;;;;13.35;4.50;;;15.20;50.80;;;;;;6213727;23;20512;-86
2022/03/18 10:41:32;;;;;;;10.98;4.38;;;15.40;49.90;;;;;;6218542;23;20080;-86
2022/03/18 10:44:28;;;;;;;14.02;4.80;;;15.20;51.00;;;;;;6217420;23;20040;-86
2022/03/18 10:47:01;;;;;;;;;;;15.20;50.60;;;;;;6218506;23;20025;-84
2022/03/18 10:49:28;;;;;;;12.07;3.93;;;15.30;49.00;;;;;;6219607;22;19920;-84
2022/03/18 10:52:10;;;;;;;12.65;4.80;;;15.10;48.90;;;;;;6218231;23;20025;-83
2022/03/18 10:55:22;;;;;;;13.45;4.57;;;15.20;51.40;;;;;;6216274;22;20045;-85
2022/03/18 10:58:16;;;;;;;13.20;4.25;;;15.60;50.10;;;;;;6218786;22;20359;-85
2022/03/18 11:01:11;;;;;;;13.48;4.22;;;15.90;49.90;;;;;;6217311;23;20027;-84
2022/03/18 11:04:21;;;;;;;8.65;4.07;;;15.70;48.70;;;;;;6071878;23;20027;-86
2022/03/18 11:12:56;;;;;;;13.45;4.07;;;15.90;49.30;;;;;;6040464;23;20519;-86
2022/03/18 11:15:45;;;;;;;11.95;4.32;;;15.70;49.10;;;;;;6074013;23;20033;-85
2022/03/18 11:19:05;;;;;;;;;;;;;;;;;;;;;
2022/03/18 11:22:03;;;;;;;12.32;4.38;;;15.70;48.50;;;;;;6089756;23;20031;-86
2022/03/18 11:24:48;;;;;;;15.32;4.25;;;15.80;49.10;;;;;;6070799;23;20472;-86
2022/03/18 11:27:57;;;;;;;10.90;4.60;;;15.80;48.30;;;;;;6048724;23;20022;-86
2022/03/18 11:31:01;;;;;;;23.98;4.60;;;15.80;48.90;;;;;;6095783;23;20019;-86
2022/03/18 11:34:01;;;;;;;11.18;3.92;;;15.80;48.80;;;;;;6089781;23;20030;-86
2022/03/18 11:37:52;;;;;;;;;;;;;;;;;;;;;
2022/03/18 11:41:03;;;;;;;14.55;4.15;;;15.80;48.40;;;;;;6101353;23;20178;-83
2022/03/18 11:44:35;;;;;;;17.52;4.07;;;15.70;48.30;;;;;;6124185;23;20238;-84
2022/03/18 11:47:32;;;;;;;13.40;3.95;;;15.80;48.00;;;;;;6099513;23;20034;-84
2022/03/18 11:50:39;;;;;;;9.02;3.97;;;15.70;49.70;;;;;;6106770;23;20023;-87
2022/03/18 11:53:51;;;;;;;9.55;3.90;;;15.60;48.50;;;;;;6103116;23;20018;-85
2022/03/18 11:56:54;;;;;;;13.95;3.83;;;15.40;48.70;;;;;;6101594;23;20019;-84
2022/03/18 11:59:53;;;;;;;12.98;3.55;;;15.50;49.30;;;;;;6106309;23;20014;-84
2022/03/18 12:02:42;;;;;;;11.48;4.38;;;16.00;50.00;;;;;;6077852;23;20419;-86
2022/03/18 12:05:33;;;;;;;13.35;4.43;;;16.10;47.70;;;;;;6098953;23;20030;-85
2022/03/18 12:08:07;;;;;;;11.45;3.53;;;15.90;48.20;;;;;;6123113;23;20022;-85
2022/03/18 12:11:19;;;;;;;12.90;4.22;;;15.80;50.50;;;;;;6124983;23;20023;-83
2022/03/18 12:13:59;;;;;;;9.70;3.72;;;15.70;50.00;;;;;;6126352;23;20025;-82
2022/03/18 12:16:30;;;;;;;12.38;3.95;;;15.70;48.70;;;;;;6214168;23;20025;-84
2022/03/18 12:19:13;;;;;;;14.07;3.60;;;15.60;48.80;;;;;;6220205;23;20531;-86
2022/03/18 12:22:20;;;;;;;11.70;4.07;;;15.30;47.30;;;;;;6215062;23;20029;-85
2022/03/18 12:24:49;;;;;;;9.35;3.70;;;15.30;48.00;;;;;;6196542;23;20037;-85
2022/03/18 12:27:36;;;;;;;14.50;2.95;;;15.40;49.20;;;;;;6198798;23;20021;-79
2022/03/18 12:30:09;;;;;;;8.68;2.80;;;15.80;46.50;;;;;;6213848;22;20021;-79
2022/03/18 12:32:47;;;;;;;11.30;2.83;;;15.90;48.20;;;;;;6215983;23;20389;-80
2022/03/18 12:35:44;;;;;;;8.88;3.05;;;15.90;46.80;;;;;;6194457;23;20453;-80
2022/03/18 12:38:21;;;;;;;11.38;2.97;;;16.20;47.10;;;;;;6216041;22;20028;-81
2022/03/18 12:41:02;;;;;;;13.35;3.20;;;16.60;47.90;;;;;;6215705;22;20025;-81
2022/03/18 12:43:56;;;;;;;6.50;2.83;;;16.90;47.10;;;;;;6215117;23;20079;-82
2022/03/18 12:46:57;;;;;;;11.68;2.88;;;16.80;45.10;;;;;;6215882;23;20021;-81
2022/03/18 12:49:54;;;;;;;8.35;3.17;;;16.10;45.10;;;;;;6219560;22;20322;-80
2022/03/18 12:52:24;;;;;;;11.27;3.80;;;15.60;46.20;;;;;;6218588;23;20095;-80
2022/03/18 12:55:03;;;;;;;9.52;3.35;;;16.00;48.00;;;;;;6217792;23;20067;-81
2022/03/18 12:57:43;;;;;;;10.75;2.85;;;16.30;47.00;;;;;;6217182;23;20391;-81
2022/03/18 13:00:24;;;;;;;8.63;2.90;;;16.30;46.50;;;;;;6213596;23;20021;-80
2022/03/18 13:03:15;;;;;;;9.38;3.03;;;16.60;46.90;;;;;;6212722;22;20029;-80
2022/03/18 13:05:46;;;;;;;8.40;3.13;;;16.60;44.60;;;;;;6213075;23;20029;-80
2022/03/18 13:08:34;;;;;;;8.32;3.28;;;16.60;45.40;;;;;;6212048;23;20029;-80
2022/03/18 13:11:04;;;;;;;9.57;3.05;;;16.80;45.40;;;;;;6191808;23;20025;-80
2022/03/18 13:13:32;;;;;;;8.63;2.78;;;16.70;45.20;;;;;;6190707;23;20124;-80
2022/03/18 13:16:09;;;;;;;12.00;3.08;;;16.80;45.00;;;;;;6215917;23;20033;-81
2022/03/18 13:18:58;;;;;;;15.55;3.20;;;16.80;44.20;;;;;;6216320;23;20025;-79
2022/03/18 13:22:02;;;;;;;8.90;3.00;;;16.90;44.40;;;;;;6211071;23;20029;-81
2022/03/18 13:24:29;;;;;;;7.90;3.13;;;16.70;43.90;;;;;;6216705;23;20918;-79
2022/03/18 13:26:58;;;;;;;12.05;3.05;;;16.50;45.70;;;;;;6217334;23;20044;-78
2022/03/18 13:32:50;;;;;;;9.18;2.90;;;16.20;44.70;;;;;;6215941;23;20017;-80
2022/03/18 13:32:56;;;;;;;11.63;3.05;;;16.20;45.50;;;;;;6218732;22;20459;-78
2022/03/18 13:35:23;;;;;;;10.07;3.07;;;16.20;45.10;;;;;;6210623;23;20025;-78
2022/03/18 13:38:20;;;;;;;9.15;3.03;;;16.50;44.50;;;;;;6212775;23;20939;-78
2022/03/18 13:41:03;;;;;;;7.97;2.83;;;16.60;44.80;;;;;;6218386;22;20025;-81
2022/03/18 13:43:39;;;;;;;7.00;2.60;;;16.90;44.90;;;;;;6218497;22;20021;-78
2022/03/18 13:46:27;;;;;;;9.57;2.83;;;16.60;44.00;;;;;;6214006;23;20033;-80
2022/03/18 13:49:08;;;;;;;;;;;16.50;44.60;;;;;;6217080;22;20105;-78
2022/03/18 13:51:40;;;;;;;9.45;3.00;;;16.30;43.40;;;;;;6216808;22;19920;-81
2022/03/18 13:54:10;;;;;;;11.25;2.95;;;16.40;44.80;;;;;;6218087;22;20025;-79
2022/03/18 13:57:03;;;;;;;6.45;2.50;;;16.60;44.10;;;;;;6213905;23;20021;-80
2022/03/18 13:59:31;;;;;;;10.00;2.55;;;16.60;44.60;;;;;;6216633;22;20128;-80
2022/03/18 14:02:06;;;;;;;6.15;2.38;;;16.90;42.80;;;;;;6185754;23;20061;-78
2022/03/18 14:06:06;;;;;;;11.40;2.50;;;16.80;43.50;;;;;;6215325;23;20402;-79
2022/03/18 14:08:31;;;;;;;7.93;2.50;;;16.60;42.60;;;;;;6089867;23;20029;-81
2022/03/18 14:11:00;;;;;;;6.97;2.45;;;16.50;43.30;;;;;;6093913;23;20294;-81
2022/03/18 14:13:40;;;;;;;8.40;2.55;;;16.50;42.30;;;;;;6070843;23;20030;-83
2022/03/18 14:16:13;;;;;;;8.15;2.35;;;16.50;43.10;;;;;;6091123;23;20026;-82
2022/03/18 14:18:46;;;;;;;7.53;2.60;;;16.40;42.60;;;;;;6071633;23;20043;-81
2022/03/18 14:21:15;;;;;;;6.73;2.40;;;16.20;44.20;;;;;;6093804;23;20742;-81
2022/03/18 14:23:45;;;;;;;6.72;2.50;;;16.20;43.90;;;;;;6095211;23;20250;-81
2022/03/18 14:26:12;;;;;;;7.30;2.38;;;16.20;43.80;;;;;;6092279;23;20023;-81
2022/03/18 14:28:42;;;;;;;12.65;2.92;;;16.10;43.50;;;;;;6092339;23;20067;-79
2022/03/18 14:31:41;;;;;;;12.98;2.63;;;16.20;43.90;;;;;;6070448;23;20526;-81
2022/03/18 14:35:18;;;;;;;10.20;2.78;;;16.40;44.20;;;;;;6051348;23;20030;-78
2022/03/18 14:37:48;;;;;;;9.00;2.65;;;16.30;44.00;;;;;;5977005;23;20024;-78
2022/03/18 14:40:23;;;;;;;16.42;3.13;;;16.40;44.10;;;;;;5978123;23;20050;-78
2022/03/18 14:43:06;;;;;;;9.10;2.90;;;16.30;43.10;;;;;;6122429;23;20051;-78
2022/03/18 14:45:36;;;;;;;8.18;2.90;;;16.40;43.90;;;;;;6123529;23;20230;-78
2022/03/18 14:48:08;;;;;;;11.32;2.65;;;16.50;43.10;;;;;;6095682;23;20029;-78
2022/03/18 14:50:38;;;;;;;13.50;2.92;;;16.40;43.10;;;;;;6102540;23;20058;-77
2022/03/18 14:53:46;;;;;;;8.38;2.72;;;16.40;43.40;;;;;;6066862;23;20554;-78
2022/03/18 14:56:37;;;;;;;11.63;2.90;;;16.30;43.60;;;;;;6090252;23;20027;-77
2022/03/18 14:59:32;;;;;;;9.57;3.13;;;16.10;43.80;;;;;;6091825;23;20636;-78
2022/03/18 15:02:01;;;;;;;11.55;2.72;;;16.20;44.10;;;;;;6065741;23;20114;-78
2022/03/18 15:04:28;;;;;;;9.20;2.80;;;16.40;43.80;;;;;;6092658;23;20034;-78
2022/03/18 15:07:03;;;;;;;11.02;3.15;;;16.10;43.60;;;;;;6068532;23;20041;-78
2022/03/18 15:09:35;;;;;;;8.27;3.05;;;16.20;44.20;;;;;;6093156;23;20711;-80
2022/03/18 15:12:02;;;;;;;10.70;3.22;;;16.30;44.20;;;;;;6093085;23;20463;-79
2022/03/18 15:14:29;;;;;;;6.85;2.90;;;16.40;44.10;;;;;;6147242;23;20061;-80
2022/03/18 15:16:56;;;;;;;7.85;2.83;;;16.40;44.10;;;;;;6185019;23;20029;-79
2022/03/18 15:19:29;;;;;;;11.85;3.20;;;16.50;43.70;;;;;;6184884;23;20032;-79
2022/03/18 15:22:11;;;;;;;13.68;3.40;;;16.30;44.20;;;;;;6185007;23;20025;-78
2022/03/18 15:24:48;;;;;;;8.07;2.95;;;16.40;44.60;;;;;;6158821;23;20029;-76
2022/03/18 15:27:18;;;;;;;8.95;3.20;;;16.50;43.70;;;;;;6182920;23;20033;-79
2022/03/18 15:29:58;;;;;;;10.73;3.45;;;16.30;43.30;;;;;;6185160;23;20049;-79
2022/03/18 15:32:31;;;;;;;11.68;3.70;;;16.20;44.30;;;;;;6185328;23;20029;-79
2022/03/18 15:35:06;;;;;;;9.88;3.45;;;16.30;45.00;;;;;;6159314;23;20029;-79
2022/03/18 15:37:34;;;;;;;8.43;3.35;;;16.80;45.20;;;;;;6182931;23;20910;-79
2022/03/18 15:40:05;;;;;;;9.45;3.35;;;17.00;43.20;;;;;;6183663;23;20035;-76
2022/03/18 15:42:48;;;;;;;7.72;3.03;;;17.10;42.90;;;;;;6160266;23;20032;-76
2022/03/18 15:45:27;;;;;;;11.88;3.22;;;17.30;43.40;;;;;;6183553;23;20103;-77
2022/03/18 15:48:02;;;;;;;8.93;3.35;;;17.20;41.90;;;;;;6158980;23;20021;-77
2022/03/18 15:50:44;;;;;;;12.10;3.17;;;17.20;42.70;;;;;;6200906;23;20025;-77
2022/03/18 15:53:18;;;;;;;7.93;3.15;;;17.50;42.80;;;;;;6214756;23;20021;-78
2022/03/18 15:56:02;;;;;;;10.15;3.25;;;17.20;41.90;;;;;;6214118;22;20029;-77
2022/03/18 15:58:48;;;;;;;6.20;2.90;;;17.00;42.90;;;;;;6207850;23;20029;-76
2022/03/18 16:01:15;;;;;;;13.68;3.25;;;17.00;42.60;;;;;;6213231;23;20437;-79
2022/03/18 16:03:52;;;;;;;13.57;3.10;;;17.00;42.80;;;;;;6215286;22;20025;-79
2022/03/18 16:06:19;;;;;;;10.27;2.92;;;16.70;42.50;;;;;;6214439;22;20080;-78
2022/03/18 16:08:52;;;;;;;9.45;3.38;;;16.60;42.70;;;;;;6214840;23;20017;-79
2022/03/18 16:11:19;;;;;;;11.48;2.92;;;16.40;43.60;;;;;;6214525;23;20029;-77
2022/03/18 16:14:12;;;;;;;;;;;;;;;;;;;;;
2022/03/18 16:17:09;;;;;;;8.07;2.80;;;16.80;43.30;;;;;;6211469;23;20025;-79
2022/03/18 16:19:39;;;;;;;8.80;3.03;;;16.40;43.10;;;;;;6213773;22;20044;-78
2022/03/18 16:22:29;;;;;;;7.93;2.97;;;16.30;43.80;;;;;;6215030;22;20076;-79
2022/03/18 16:25:00;;;;;;;8.13;2.80;;;16.30;43.90;;;;;;6215959;23;20280;-77
2022/03/18 16:27:58;;;;;;;9.40;3.00;;;16.30;43.80;;;;;;6214284;23;20047;-79
2022/03/18 16:30:53;;;;;;;10.00;2.95;;;16.10;44.10;;;;;;6215685;22;20029;-86
2022/03/18 16:33:20;;;;;;;11.32;3.25;;;15.90;44.00;;;;;;6199991;23;20032;-86
2022/03/18 16:36:26;;;;;;;13.45;3.25;;;15.80;44.90;;;;;;6185630;23;20068;-85
2022/03/18 16:39:26;;;;;;;11.95;3.30;;;15.80;44.60;;;;;;6200913;23;20033;-85
2022/03/18 16:42:01;;;;;;;8.48;3.30;;;15.80;45.10;;;;;;6209832;23;20027;-86
2022/03/18 16:44:44;;;;;;;8.20;2.78;;;15.40;44.60;;;;;;6213199;22;20059;-85
2022/03/18 16:49:56;;;;;;;10.30;2.67;;;15.20;45.30;;;;;;6214956;23;20033;-85
2022/03/18 16:52:23;;;;;;;6.90;2.60;;;15.40;45.20;;;;;;6212628;22;20092;-86
2022/03/18 16:55:20;;;;;;;11.20;3.15;;;15.40;45.50;;;;;;6212284;23;20116;-85
2022/03/18 16:57:58;;;;;;;11.32;3.03;;;15.50;45.20;;;;;;6211415;23;20045;-84
2022/03/18 17:00:46;;;;;;;9.52;3.03;;;15.50;45.40;;;;;;6217111;23;20177;-84
